sensor_id;sensor_type;location;lat;lon;timestamp;P1;durP1;ratioP1;P2;durP2;ratioP2
26277;SDS011;14000;52.056;8.510;2023-02-01T00:00:33;31.23;;;4.87;;
26277;SDS011;14000;52.056;8.510;2023-02-01T00:02:59;30.67;;;5.13;;
26277;SDS011;14000;52.056;8.510;2023-02-01T00:05:25;34.10;;;4.60;;
26277;SDS011;14000;52.056;8.510;2023-02-01T00:07:51;24.30;;;4.50;;
26277;SDS011;14000;52.056;8.510;2023-02-01T00:10:16;30.43;;;5.00;;
26277;SDS011;14000;52.056;8.510;2023-02-01T00:12:42;29.73;;;4.03;;
26277;SDS011;14000;52.056;8.510;2023-02-01T00:15:08;37.27;;;5.30;;
26277;SDS011;14000;52.056;8.510;2023-02-01T00:17:34;30.23;;;4.97;;
26277;SDS011;14000;52.056;8.510;2023-02-01T00:20:00;26.77;;;4.07;;
26277;SDS011;14000;52.056;8.510;2023-02-01T00:22:26;28.30;;;4.70;;
26277;SDS011;14000;52.056;8.510;2023-02-01T00:24:51;24.07;;;4.30;;
26277;SDS011;14000;52.056;8.510;2023-02-01T00:27:17;31.17;;;4.50;;
26277;SDS011;14000;52.056;8.510;2023-02-01T00:29:45;28.83;;;4.67;;
26277;SDS011;14000;52.056;8.510;2023-02-01T00:32:10;27.10;;;4.23;;
26277;SDS011;14000;52.056;8.510;2023-02-01T00:34:36;24.10;;;4.10;;
26277;SDS011;14000;52.056;8.510;2023-02-01T00:37:02;28.73;;;4.80;;
26277;SDS011;14000;52.056;8.510;2023-02-01T00:39:27;27.30;;;4.73;;
26277;SDS011;14000;52.056;8.510;2023-02-01T00:41:53;27.00;;;4.80;;
26277;SDS011;14000;52.056;8.510;2023-02-01T00:44:18;34.20;;;4.60;;
26277;SDS011;14000;52.056;8.510;2023-02-01T00:46:44;24.40;;;4.70;;
26277;SDS011;14000;52.056;8.510;2023-02-01T00:49:10;29.87;;;4.10;;
26277;SDS011;14000;52.056;8.510;2023-02-01T00:51:35;32.20;;;5.10;;
26277;SDS011;14000;52.056;8.510;2023-02-01T00:54:01;28.73;;;4.50;;
26277;SDS011;14000;52.056;8.510;2023-02-01T00:56:28;29.67;;;4.53;;
26277;SDS011;14000;52.056;8.510;2023-02-01T00:58:54;28.53;;;4.53;;
26277;SDS011;14000;52.056;8.510;2023-02-01T01:01:21;23.67;;;4.20;;
26277;SDS011;14000;52.056;8.510;2023-02-01T01:03:49;32.67;;;4.47;;
26277;SDS011;14000;52.056;8.510;2023-02-01T01:06:21;38.80;;;4.50;;
26277;SDS011;14000;52.056;8.510;2023-02-01T01:08:50;27.93;;;4.37;;
26277;SDS011;14000;52.056;8.510;2023-02-01T01:11:18;24.57;;;3.80;;
26277;SDS011;14000;52.056;8.510;2023-02-01T01:13:47;24.27;;;4.60;;
26277;SDS011;14000;52.056;8.510;2023-02-01T01:16:14;25.50;;;4.33;;
26277;SDS011;14000;52.056;8.510;2023-02-01T01:18:40;25.13;;;4.47;;
26277;SDS011;14000;52.056;8.510;2023-02-01T01:21:06;27.60;;;4.30;;
26277;SDS011;14000;52.056;8.510;2023-02-01T01:23:34;25.57;;;4.50;;
26277;SDS011;14000;52.056;8.510;2023-02-01T01:26:00;28.80;;;4.83;;
26277;SDS011;14000;52.056;8.510;2023-02-01T01:28:30;22.97;;;4.40;;
26277;SDS011;14000;52.056;8.510;2023-02-01T01:30:55;28.40;;;4.93;;
26277;SDS011;14000;52.056;8.510;2023-02-01T01:33:21;24.00;;;4.67;;
26277;SDS011;14000;52.056;8.510;2023-02-01T01:35:46;24.40;;;5.33;;
26277;SDS011;14000;52.056;8.510;2023-02-01T01:38:12;24.23;;;4.40;;
26277;SDS011;14000;52.056;8.510;2023-02-01T01:40:38;27.97;;;4.40;;
26277;SDS011;14000;52.056;8.510;2023-02-01T01:43:05;26.40;;;4.23;;
26277;SDS011;14000;52.056;8.510;2023-02-01T01:45:41;24.10;;;4.30;;
26277;SDS011;14000;52.056;8.510;2023-02-01T01:48:08;23.30;;;4.97;;
26277;SDS011;14000;52.056;8.510;2023-02-01T01:50:58;35.67;;;5.83;;
26277;SDS011;14000;52.056;8.510;2023-02-01T01:53:28;34.27;;;4.90;;
26277;SDS011;14000;52.056;8.510;2023-02-01T01:55:58;31.70;;;5.60;;
26277;SDS011;14000;52.056;8.510;2023-02-01T01:58:25;28.73;;;4.60;;
26277;SDS011;14000;52.056;8.510;2023-02-01T02:00:53;26.77;;;4.40;;
26277;SDS011;14000;52.056;8.510;2023-02-01T02:03:20;32.67;;;5.13;;
26277;SDS011;14000;52.056;8.510;2023-02-01T02:05:50;28.00;;;4.70;;
26277;SDS011;14000;52.056;8.510;2023-02-01T02:08:18;29.10;;;5.43;;
26277;SDS011;14000;52.056;8.510;2023-02-01T02:10:47;25.33;;;4.83;;
26277;SDS011;14000;52.056;8.510;2023-02-01T02:13:33;28.20;;;5.20;;
26277;SDS011;14000;52.056;8.510;2023-02-01T02:16:23;29.97;;;4.97;;
26277;SDS011;14000;52.056;8.510;2023-02-01T02:25:15;33.13;;;5.53;;
26277;SDS011;14000;52.056;8.510;2023-02-01T02:27:59;24.57;;;4.70;;
26277;SDS011;14000;52.056;8.510;2023-02-01T02:31:08;32.83;;;4.73;;
26277;SDS011;14000;52.056;8.510;2023-02-01T02:44:13;27.33;;;5.03;;
26277;SDS011;14000;52.056;8.510;2023-02-01T02:47:11;25.03;;;4.73;;
26277;SDS011;14000;52.056;8.510;2023-02-01T02:49:54;25.80;;;5.00;;
26277;SDS011;14000;52.056;8.510;2023-02-01T02:52:45;31.00;;;5.20;;
26277;SDS011;14000;52.056;8.510;2023-02-01T02:55:35;38.27;;;6.00;;
26277;SDS011;14000;52.056;8.510;2023-02-01T02:58:04;29.33;;;5.13;;
26277;SDS011;14000;52.056;8.510;2023-02-01T03:00:50;23.43;;;4.10;;
26277;SDS011;14000;52.056;8.510;2023-02-01T03:03:37;27.70;;;5.10;;
26277;SDS011;14000;52.056;8.510;2023-02-01T03:06:22;31.07;;;4.57;;
26277;SDS011;14000;52.056;8.510;2023-02-01T03:08:48;23.03;;;4.87;;
26277;SDS011;14000;52.056;8.510;2023-02-01T03:11:19;31.40;;;4.73;;
26277;SDS011;14000;52.056;8.510;2023-02-01T03:13:52;23.53;;;4.17;;
26277;SDS011;14000;52.056;8.510;2023-02-01T03:16:26;30.90;;;5.30;;
26277;SDS011;14000;52.056;8.510;2023-02-01T03:21:45;25.40;;;5.27;;
26277;SDS011;14000;52.056;8.510;2023-02-01T03:24:16;29.43;;;4.47;;
26277;SDS011;14000;52.056;8.510;2023-02-01T03:26:53;23.97;;;4.30;;
26277;SDS011;14000;52.056;8.510;2023-02-01T03:29:34;27.03;;;4.63;;
26277;SDS011;14000;52.056;8.510;2023-02-01T03:32:10;25.70;;;4.20;;
26277;SDS011;14000;52.056;8.510;2023-02-01T03:34:36;27.70;;;4.77;;
26277;SDS011;14000;52.056;8.510;2023-02-01T03:37:03;24.93;;;4.30;;
26277;SDS011;14000;52.056;8.510;2023-02-01T03:39:39;29.27;;;4.50;;
26277;SDS011;14000;52.056;8.510;2023-02-01T03:42:21;23.53;;;3.97;;
26277;SDS011;14000;52.056;8.510;2023-02-01T03:47:47;28.20;;;4.77;;
26277;SDS011;14000;52.056;8.510;2023-02-01T03:50:16;26.60;;;4.17;;
26277;SDS011;14000;52.056;8.510;2023-02-01T03:52:45;26.97;;;4.57;;
26277;SDS011;14000;52.056;8.510;2023-02-01T03:55:19;23.70;;;4.20;;
26277;SDS011;14000;52.056;8.510;2023-02-01T04:00:34;26.33;;;4.37;;
26277;SDS011;14000;52.056;8.510;2023-02-01T04:03:00;30.57;;;4.33;;
26277;SDS011;14000;52.056;8.510;2023-02-01T04:05:28;21.13;;;3.60;;
26277;SDS011;14000;52.056;8.510;2023-02-01T04:07:55;29.77;;;4.33;;
26277;SDS011;14000;52.056;8.510;2023-02-01T04:10:21;25.40;;;3.93;;
26277;SDS011;14000;52.056;8.510;2023-02-01T04:12:47;32.73;;;4.77;;
26277;SDS011;14000;52.056;8.510;2023-02-01T04:15:12;31.13;;;3.63;;
26277;SDS011;14000;52.056;8.510;2023-02-01T04:17:38;26.63;;;4.10;;
26277;SDS011;14000;52.056;8.510;2023-02-01T04:20:05;32.57;;;4.50;;
26277;SDS011;14000;52.056;8.510;2023-02-01T04:22:31;28.17;;;4.87;;
26277;SDS011;14000;52.056;8.510;2023-02-01T04:24:56;23.27;;;3.67;;
26277;SDS011;14000;52.056;8.510;2023-02-01T04:27:22;27.73;;;4.63;;
26277;SDS011;14000;52.056;8.510;2023-02-01T04:29:48;25.83;;;4.53;;
26277;SDS011;14000;52.056;8.510;2023-02-01T04:32:16;23.63;;;4.10;;
26277;SDS011;14000;52.056;8.510;2023-02-01T04:34:42;24.20;;;4.17;;
26277;SDS011;14000;52.056;8.510;2023-02-01T04:37:08;23.50;;;4.17;;
26277;SDS011;14000;52.056;8.510;2023-02-01T04:39:33;28.77;;;4.37;;
26277;SDS011;14000;52.056;8.510;2023-02-01T04:41:59;29.33;;;4.10;;
26277;SDS011;14000;52.056;8.510;2023-02-01T04:44:25;25.60;;;4.00;;
26277;SDS011;14000;52.056;8.510;2023-02-01T04:46:50;31.53;;;4.77;;
26277;SDS011;14000;52.056;8.510;2023-02-01T04:49:16;28.40;;;4.30;;
26277;SDS011;14000;52.056;8.510;2023-02-01T04:51:42;32.23;;;4.90;;
26277;SDS011;14000;52.056;8.510;2023-02-01T04:54:08;30.17;;;5.50;;
26277;SDS011;14000;52.056;8.510;2023-02-01T04:56:36;24.50;;;4.47;;
26277;SDS011;14000;52.056;8.510;2023-02-01T04:59:02;18.43;;;4.13;;
26277;SDS011;14000;52.056;8.510;2023-02-01T05:01:28;34.13;;;4.80;;
26277;SDS011;14000;52.056;8.510;2023-02-01T05:03:54;27.20;;;4.33;;
26277;SDS011;14000;52.056;8.510;2023-02-01T05:06:19;27.53;;;4.53;;
26277;SDS011;14000;52.056;8.510;2023-02-01T05:08:45;26.50;;;5.57;;
26277;SDS011;14000;52.056;8.510;2023-02-01T05:11:11;28.97;;;5.00;;
26277;SDS011;14000;52.056;8.510;2023-02-01T05:13:57;28.73;;;4.77;;
26277;SDS011;14000;52.056;8.510;2023-02-01T05:16:24;29.07;;;4.20;;
26277;SDS011;14000;52.056;8.510;2023-02-01T05:18:49;34.73;;;5.53;;
26277;SDS011;14000;52.056;8.510;2023-02-01T05:21:15;28.70;;;4.87;;
26277;SDS011;14000;52.056;8.510;2023-02-01T05:23:40;37.97;;;5.57;;
26277;SDS011;14000;52.056;8.510;2023-02-01T05:26:24;29.73;;;5.13;;
26277;SDS011;14000;52.056;8.510;2023-02-01T05:28:50;29.83;;;5.43;;
26277;SDS011;14000;52.056;8.510;2023-02-01T05:31:16;38.67;;;5.40;;
26277;SDS011;14000;52.056;8.510;2023-02-01T05:33:42;26.10;;;4.83;;
26277;SDS011;14000;52.056;8.510;2023-02-01T05:36:07;34.50;;;5.47;;
26277;SDS011;14000;52.056;8.510;2023-02-01T05:38:33;30.17;;;4.77;;
26277;SDS011;14000;52.056;8.510;2023-02-01T05:40:58;41.63;;;5.70;;
26277;SDS011;14000;52.056;8.510;2023-02-01T05:43:24;37.07;;;5.37;;
26277;SDS011;14000;52.056;8.510;2023-02-01T05:45:51;39.83;;;6.00;;
26277;SDS011;14000;52.056;8.510;2023-02-01T05:48:17;28.87;;;5.27;;
26277;SDS011;14000;52.056;8.510;2023-02-01T05:50:43;36.20;;;5.50;;
26277;SDS011;14000;52.056;8.510;2023-02-01T05:53:08;32.97;;;5.10;;
26277;SDS011;14000;52.056;8.510;2023-02-01T05:55:34;32.87;;;5.07;;
26277;SDS011;14000;52.056;8.510;2023-02-01T05:58:01;27.07;;;5.30;;
26277;SDS011;14000;52.056;8.510;2023-02-01T06:00:27;28.13;;;4.80;;
26277;SDS011;14000;52.056;8.510;2023-02-01T06:02:52;33.60;;;5.87;;
26277;SDS011;14000;52.056;8.510;2023-02-01T06:05:18;27.83;;;5.63;;
26277;SDS011;14000;52.056;8.510;2023-02-01T06:07:44;26.10;;;4.67;;
26277;SDS011;14000;52.056;8.510;2023-02-01T06:10:09;32.40;;;5.30;;
26277;SDS011;14000;52.056;8.510;2023-02-01T06:12:35;30.67;;;5.10;;
26277;SDS011;14000;52.056;8.510;2023-02-01T06:15:01;41.30;;;5.10;;
26277;SDS011;14000;52.056;8.510;2023-02-01T06:17:26;34.87;;;6.00;;
26277;SDS011;14000;52.056;8.510;2023-02-01T06:19:52;33.73;;;4.60;;
26277;SDS011;14000;52.056;8.510;2023-02-01T06:22:18;30.53;;;4.83;;
26277;SDS011;14000;52.056;8.510;2023-02-01T06:24:43;32.83;;;5.10;;
26277;SDS011;14000;52.056;8.510;2023-02-01T06:27:09;28.63;;;5.60;;
26277;SDS011;14000;52.056;8.510;2023-02-01T06:29:35;31.07;;;5.20;;
26277;SDS011;14000;52.056;8.510;2023-02-01T06:32:00;30.47;;;5.70;;
26277;SDS011;14000;52.056;8.510;2023-02-01T06:34:26;37.20;;;5.50;;
26277;SDS011;14000;52.056;8.510;2023-02-01T06:36:52;32.20;;;5.60;;
26277;SDS011;14000;52.056;8.510;2023-02-01T06:39:18;24.90;;;4.67;;
26277;SDS011;14000;52.056;8.510;2023-02-01T06:41:47;24.73;;;4.53;;
26277;SDS011;14000;52.056;8.510;2023-02-01T06:44:13;29.43;;;5.17;;
26277;SDS011;14000;52.056;8.510;2023-02-01T06:46:39;29.00;;;5.17;;
26277;SDS011;14000;52.056;8.510;2023-02-01T06:49:05;32.77;;;5.03;;
26277;SDS011;14000;52.056;8.510;2023-02-01T06:51:31;26.77;;;5.33;;
26277;SDS011;14000;52.056;8.510;2023-02-01T06:53:56;27.23;;;4.97;;
26277;SDS011;14000;52.056;8.510;2023-02-01T06:56:26;31.93;;;5.07;;
26277;SDS011;14000;52.056;8.510;2023-02-01T06:58:52;28.33;;;4.80;;
26277;SDS011;14000;52.056;8.510;2023-02-01T07:01:17;28.93;;;4.33;;
26277;SDS011;14000;52.056;8.510;2023-02-01T07:03:46;26.40;;;4.33;;
26277;SDS011;14000;52.056;8.510;2023-02-01T07:06:13;28.23;;;5.20;;
26277;SDS011;14000;52.056;8.510;2023-02-01T07:08:38;29.40;;;4.70;;
26277;SDS011;14000;52.056;8.510;2023-02-01T07:11:08;25.00;;;4.63;;
26277;SDS011;14000;52.056;8.510;2023-02-01T07:13:35;27.30;;;4.70;;
26277;SDS011;14000;52.056;8.510;2023-02-01T07:16:01;31.20;;;4.80;;
26277;SDS011;14000;52.056;8.510;2023-02-01T07:18:28;31.70;;;4.57;;
26277;SDS011;14000;52.056;8.510;2023-02-01T07:20:55;27.47;;;4.43;;
26277;SDS011;14000;52.056;8.510;2023-02-01T07:23:21;26.30;;;4.40;;
26277;SDS011;14000;52.056;8.510;2023-02-01T07:25:47;31.60;;;4.07;;
26277;SDS011;14000;52.056;8.510;2023-02-01T07:28:13;27.30;;;4.53;;
26277;SDS011;14000;52.056;8.510;2023-02-01T07:30:39;30.07;;;4.97;;
26277;SDS011;14000;52.056;8.510;2023-02-01T07:33:06;28.10;;;4.80;;
26277;SDS011;14000;52.056;8.510;2023-02-01T07:35:32;24.07;;;4.00;;
26277;SDS011;14000;52.056;8.510;2023-02-01T07:37:58;30.30;;;4.47;;
26277;SDS011;14000;52.056;8.510;2023-02-01T07:40:23;30.57;;;5.07;;
26277;SDS011;14000;52.056;8.510;2023-02-01T07:42:54;27.07;;;4.33;;
26277;SDS011;14000;52.056;8.510;2023-02-01T07:45:21;20.60;;;4.07;;
26277;SDS011;14000;52.056;8.510;2023-02-01T07:47:48;30.03;;;4.03;;
26277;SDS011;14000;52.056;8.510;2023-02-01T07:50:13;34.00;;;4.20;;
26277;SDS011;14000;52.056;8.510;2023-02-01T07:52:39;25.50;;;4.50;;
26277;SDS011;14000;52.056;8.510;2023-02-01T07:55:06;28.30;;;4.87;;
26277;SDS011;14000;52.056;8.510;2023-02-01T07:57:32;29.07;;;4.67;;
26277;SDS011;14000;52.056;8.510;2023-02-01T07:59:57;27.43;;;4.87;;
26277;SDS011;14000;52.056;8.510;2023-02-01T08:02:41;28.47;;;4.80;;
26277;SDS011;14000;52.056;8.510;2023-02-01T08:05:07;28.43;;;4.47;;
26277;SDS011;14000;52.056;8.510;2023-02-01T08:07:33;23.83;;;4.63;;
26277;SDS011;14000;52.056;8.510;2023-02-01T08:09:58;27.10;;;5.07;;
26277;SDS011;14000;52.056;8.510;2023-02-01T08:12:25;35.70;;;4.87;;
26277;SDS011;14000;52.056;8.510;2023-02-01T08:14:51;33.40;;;4.80;;
26277;SDS011;14000;52.056;8.510;2023-02-01T08:17:18;31.03;;;5.53;;
26277;SDS011;14000;52.056;8.510;2023-02-01T08:19:44;28.87;;;4.83;;
26277;SDS011;14000;52.056;8.510;2023-02-01T08:22:09;31.77;;;5.90;;
26277;SDS011;14000;52.056;8.510;2023-02-01T08:24:35;32.30;;;5.03;;
26277;SDS011;14000;52.056;8.510;2023-02-01T08:27:04;24.60;;;4.60;;
26277;SDS011;14000;52.056;8.510;2023-02-01T08:29:29;25.63;;;4.77;;
26277;SDS011;14000;52.056;8.510;2023-02-01T08:31:55;28.13;;;4.30;;
26277;SDS011;14000;52.056;8.510;2023-02-01T08:34:21;30.20;;;4.80;;
26277;SDS011;14000;52.056;8.510;2023-02-01T08:36:47;36.47;;;4.87;;
26277;SDS011;14000;52.056;8.510;2023-02-01T08:39:12;28.23;;;4.97;;
26277;SDS011;14000;52.056;8.510;2023-02-01T08:41:39;28.60;;;4.90;;
26277;SDS011;14000;52.056;8.510;2023-02-01T08:44:07;26.70;;;4.77;;
26277;SDS011;14000;52.056;8.510;2023-02-01T08:46:32;30.90;;;5.03;;
26277;SDS011;14000;52.056;8.510;2023-02-01T08:48:58;27.77;;;5.03;;
26277;SDS011;14000;52.056;8.510;2023-02-01T08:51:25;20.00;;;4.60;;
26277;SDS011;14000;52.056;8.510;2023-02-01T08:53:51;31.53;;;4.90;;
26277;SDS011;14000;52.056;8.510;2023-02-01T08:56:17;33.57;;;4.80;;
26277;SDS011;14000;52.056;8.510;2023-02-01T08:58:43;25.80;;;5.00;;
26277;SDS011;14000;52.056;8.510;2023-02-01T09:01:10;32.77;;;4.50;;
26277;SDS011;14000;52.056;8.510;2023-02-01T09:03:38;28.40;;;5.30;;
26277;SDS011;14000;52.056;8.510;2023-02-01T09:06:05;28.10;;;5.07;;
26277;SDS011;14000;52.056;8.510;2023-02-01T09:08:33;24.63;;;4.73;;
26277;SDS011;14000;52.056;8.510;2023-02-01T09:11:00;30.93;;;5.07;;
26277;SDS011;14000;52.056;8.510;2023-02-01T09:13:26;23.60;;;4.20;;
26277;SDS011;14000;52.056;8.510;2023-02-01T09:15:52;35.80;;;5.30;;
26277;SDS011;14000;52.056;8.510;2023-02-01T09:18:17;27.67;;;5.00;;
26277;SDS011;14000;52.056;8.510;2023-02-01T09:20:43;27.67;;;3.90;;
26277;SDS011;14000;52.056;8.510;2023-02-01T09:23:08;30.40;;;5.10;;
26277;SDS011;14000;52.056;8.510;2023-02-01T09:25:36;27.17;;;4.37;;
26277;SDS011;14000;52.056;8.510;2023-02-01T09:28:02;28.03;;;4.90;;
26277;SDS011;14000;52.056;8.510;2023-02-01T09:30:30;25.90;;;5.10;;
26277;SDS011;14000;52.056;8.510;2023-02-01T09:32:57;27.93;;;4.57;;
26277;SDS011;14000;52.056;8.510;2023-02-01T09:35:22;28.90;;;4.50;;
26277;SDS011;14000;52.056;8.510;2023-02-01T09:37:48;29.53;;;4.87;;
26277;SDS011;14000;52.056;8.510;2023-02-01T09:40:14;26.03;;;5.43;;
26277;SDS011;14000;52.056;8.510;2023-02-01T09:45:24;23.33;;;4.50;;
26277;SDS011;14000;52.056;8.510;2023-02-01T09:48:02;23.53;;;4.27;;
26277;SDS011;14000;52.056;8.510;2023-02-01T09:50:38;26.20;;;4.30;;
26277;SDS011;14000;52.056;8.510;2023-02-01T09:53:06;29.70;;;4.53;;
26277;SDS011;14000;52.056;8.510;2023-02-01T09:55:38;24.03;;;3.97;;
26277;SDS011;14000;52.056;8.510;2023-02-01T10:00:38;30.07;;;4.87;;
26277;SDS011;14000;52.056;8.510;2023-02-01T10:03:04;27.13;;;4.80;;
26277;SDS011;14000;52.056;8.510;2023-02-01T10:11:06;29.07;;;4.53;;
26277;SDS011;14000;52.056;8.510;2023-02-01T10:14:03;27.87;;;4.37;;
26277;SDS011;14000;52.056;8.510;2023-02-01T10:16:47;22.40;;;4.73;;
26277;SDS011;14000;52.056;8.510;2023-02-01T10:19:50;27.27;;;4.50;;
26277;SDS011;14000;52.056;8.510;2023-02-01T10:22:44;28.10;;;4.83;;
26277;SDS011;14000;52.056;8.510;2023-02-01T10:25:55;27.50;;;4.60;;
26277;SDS011;14000;52.056;8.510;2023-02-01T10:28:06;26.27;;;4.27;;
26277;SDS011;14000;52.056;8.510;2023-02-01T10:30:42;23.73;;;4.50;;
26277;SDS011;14000;52.056;8.510;2023-02-01T10:33:15;26.93;;;4.10;;
26277;SDS011;14000;52.056;8.510;2023-02-01T10:35:41;24.57;;;5.00;;
26277;SDS011;14000;52.056;8.510;2023-02-01T10:38:22;22.83;;;3.80;;
26277;SDS011;14000;52.056;8.510;2023-02-01T10:40:51;23.07;;;4.50;;
26277;SDS011;14000;52.056;8.510;2023-02-01T10:43:20;24.37;;;4.90;;
26277;SDS011;14000;52.056;8.510;2023-02-01T10:45:46;24.27;;;4.53;;
26277;SDS011;14000;52.056;8.510;2023-02-01T10:48:11;26.73;;;4.63;;
26277;SDS011;14000;52.056;8.510;2023-02-01T10:50:58;24.53;;;4.23;;
26277;SDS011;14000;52.056;8.510;2023-02-01T10:53:30;24.53;;;4.57;;
26277;SDS011;14000;52.056;8.510;2023-02-01T10:56:11;28.53;;;4.30;;
26277;SDS011;14000;52.056;8.510;2023-02-01T10:58:44;27.67;;;4.60;;
26277;SDS011;14000;52.056;8.510;2023-02-01T11:01:19;29.00;;;4.57;;
26277;SDS011;14000;52.056;8.510;2023-02-01T11:03:53;23.37;;;5.10;;
26277;SDS011;14000;52.056;8.510;2023-02-01T11:06:31;25.70;;;4.57;;
26277;SDS011;14000;52.056;8.510;2023-02-01T11:11:30;24.30;;;4.17;;
26277;SDS011;14000;52.056;8.510;2023-02-01T11:13:57;25.40;;;4.40;;
26277;SDS011;14000;52.056;8.510;2023-02-01T11:16:28;30.70;;;4.83;;
26277;SDS011;14000;52.056;8.510;2023-02-01T11:18:58;28.23;;;4.40;;
26277;SDS011;14000;52.056;8.510;2023-02-01T11:21:23;27.03;;;4.83;;
26277;SDS011;14000;52.056;8.510;2023-02-01T11:23:49;26.47;;;3.90;;
26277;SDS011;14000;52.056;8.510;2023-02-01T11:26:20;21.97;;;4.20;;
26277;SDS011;14000;52.056;8.510;2023-02-01T11:28:52;24.40;;;4.33;;
26277;SDS011;14000;52.056;8.510;2023-02-01T11:31:24;27.03;;;4.73;;
26277;SDS011;14000;52.056;8.510;2023-02-01T11:36:33;25.90;;;4.90;;
26277;SDS011;14000;52.056;8.510;2023-02-01T11:49:43;25.07;;;4.50;;
26277;SDS011;14000;52.056;8.510;2023-02-01T11:54:40;30.10;;;5.13;;
26277;SDS011;14000;52.056;8.510;2023-02-01T11:57:17;30.93;;;5.07;;
26277;SDS011;14000;52.056;8.510;2023-02-01T12:16:09;25.27;;;4.90;;
26277;SDS011;14000;52.056;8.510;2023-02-01T12:21:20;23.10;;;4.80;;
26277;SDS011;14000;52.056;8.510;2023-02-01T12:26:41;20.33;;;4.17;;
26277;SDS011;14000;52.056;8.510;2023-02-01T12:29:35;22.60;;;4.93;;
26277;SDS011;14000;52.056;8.510;2023-02-01T12:35:14;25.77;;;6.40;;
26277;SDS011;14000;52.056;8.510;2023-02-01T12:37:58;24.13;;;6.67;;
26277;SDS011;14000;52.056;8.510;2023-02-01T12:40:56;27.70;;;6.60;;
26277;SDS011;14000;52.056;8.510;2023-02-01T12:43:39;27.07;;;7.00;;
26277;SDS011;14000;52.056;8.510;2023-02-01T12:49:47;25.73;;;7.67;;
26277;SDS011;14000;52.056;8.510;2023-02-01T12:51:44;33.50;;;8.43;;
26277;SDS011;14000;52.056;8.510;2023-02-01T12:56:52;33.70;;;9.83;;
26277;SDS011;14000;52.056;8.510;2023-02-01T12:59:26;26.23;;;8.70;;
26277;SDS011;14000;52.056;8.510;2023-02-01T13:02:19;34.73;;;9.30;;
26277;SDS011;14000;52.056;8.510;2023-02-01T13:05:19;29.17;;;9.27;;
26277;SDS011;14000;52.056;8.510;2023-02-01T13:10:35;23.83;;;9.17;;
26277;SDS011;14000;52.056;8.510;2023-02-01T13:13:11;26.40;;;8.23;;
26277;SDS011;14000;52.056;8.510;2023-02-01T13:15:54;30.93;;;9.03;;
26277;SDS011;14000;52.056;8.510;2023-02-01T13:18:31;25.13;;;9.40;;
26277;SDS011;14000;52.056;8.510;2023-02-01T13:21:03;29.37;;;8.70;;
26277;SDS011;14000;52.056;8.510;2023-02-01T13:23:38;28.57;;;7.83;;
26277;SDS011;14000;52.056;8.510;2023-02-01T13:26:05;22.40;;;7.40;;
26277;SDS011;14000;52.056;8.510;2023-02-01T13:31:27;32.13;;;8.00;;
26277;SDS011;14000;52.056;8.510;2023-02-01T13:42:54;21.90;;;6.53;;
26277;SDS011;14000;52.056;8.510;2023-02-01T13:45:28;24.83;;;6.10;;
26277;SDS011;14000;52.056;8.510;2023-02-01T13:47:57;29.07;;;7.30;;
26277;SDS011;14000;52.056;8.510;2023-02-01T13:55:37;24.53;;;5.80;;
26277;SDS011;14000;52.056;8.510;2023-02-01T13:58:18;28.07;;;5.50;;
26277;SDS011;14000;52.056;8.510;2023-02-01T14:00:47;25.37;;;6.37;;
26277;SDS011;14000;52.056;8.510;2023-02-01T14:03:20;26.33;;;5.40;;
26277;SDS011;14000;52.056;8.510;2023-02-01T14:08:23;20.03;;;5.13;;
26277;SDS011;14000;52.056;8.510;2023-02-01T14:11:01;21.97;;;4.50;;
26277;SDS011;14000;52.056;8.510;2023-02-01T14:13:31;19.10;;;5.20;;
26277;SDS011;14000;52.056;8.510;2023-02-01T14:21:46;14.60;;;3.30;;
26277;SDS011;14000;52.056;8.510;2023-02-01T14:23:59;16.47;;;3.73;;
26277;SDS011;14000;52.056;8.510;2023-02-01T14:29:01;14.90;;;3.07;;
26277;SDS011;14000;52.056;8.510;2023-02-01T14:31:35;12.70;;;2.50;;
26277;SDS011;14000;52.056;8.510;2023-02-01T14:34:13;12.13;;;2.67;;
26277;SDS011;14000;52.056;8.510;2023-02-01T14:36:58;9.60;;;1.90;;
26277;SDS011;14000;52.056;8.510;2023-02-01T14:39:28;11.23;;;1.90;;
26277;SDS011;14000;52.056;8.510;2023-02-01T14:44:55;13.57;;;2.30;;
26277;SDS011;14000;52.056;8.510;2023-02-01T14:47:41;16.87;;;2.50;;
26277;SDS011;14000;52.056;8.510;2023-02-01T14:52:34;14.47;;;2.70;;
26277;SDS011;14000;52.056;8.510;2023-02-01T14:55:09;16.67;;;2.77;;
26277;SDS011;14000;52.056;8.510;2023-02-01T14:57:40;17.73;;;2.87;;
26277;SDS011;14000;52.056;8.510;2023-02-01T15:00:18;14.87;;;3.03;;
26277;SDS011;14000;52.056;8.510;2023-02-01T15:02:50;16.07;;;3.20;;
26277;SDS011;14000;52.056;8.510;2023-02-01T15:05:30;15.77;;;3.10;;
26277;SDS011;14000;52.056;8.510;2023-02-01T15:08:19;15.07;;;3.23;;
26277;SDS011;14000;52.056;8.510;2023-02-01T15:10:46;16.47;;;4.33;;
26277;SDS011;14000;52.056;8.510;2023-02-01T15:13:18;22.27;;;3.47;;
26277;SDS011;14000;52.056;8.510;2023-02-01T15:15:59;23.07;;;3.93;;
26277;SDS011;14000;52.056;8.510;2023-02-01T15:18:28;21.87;;;3.77;;
26277;SDS011;14000;52.056;8.510;2023-02-01T15:20:58;22.70;;;4.23;;
26277;SDS011;14000;52.056;8.510;2023-02-01T15:23:25;18.87;;;3.77;;
26277;SDS011;14000;52.056;8.510;2023-02-01T15:25:51;22.97;;;4.00;;
26277;SDS011;14000;52.056;8.510;2023-02-01T15:28:17;16.20;;;3.50;;
26277;SDS011;14000;52.056;8.510;2023-02-01T15:30:53;16.77;;;3.90;;
26277;SDS011;14000;52.056;8.510;2023-02-01T15:33:23;24.50;;;4.10;;
26277;SDS011;14000;52.056;8.510;2023-02-01T15:35:50;21.37;;;4.00;;
26277;SDS011;14000;52.056;8.510;2023-02-01T15:38:25;19.43;;;3.73;;
26277;SDS011;14000;52.056;8.510;2023-02-01T15:40:58;20.07;;;3.17;;
26277;SDS011;14000;52.056;8.510;2023-02-01T15:43:26;17.53;;;3.67;;
26277;SDS011;14000;52.056;8.510;2023-02-01T15:45:57;18.17;;;3.20;;
26277;SDS011;14000;52.056;8.510;2023-02-01T15:48:26;17.83;;;3.27;;
26277;SDS011;14000;52.056;8.510;2023-02-01T15:50:54;21.33;;;4.27;;
26277;SDS011;14000;52.056;8.510;2023-02-01T15:53:22;19.33;;;4.00;;
26277;SDS011;14000;52.056;8.510;2023-02-01T15:55:54;19.87;;;5.27;;
26277;SDS011;14000;52.056;8.510;2023-02-01T15:58:22;17.30;;;3.70;;
26277;SDS011;14000;52.056;8.510;2023-02-01T16:03:42;19.77;;;3.93;;
26277;SDS011;14000;52.056;8.510;2023-02-01T16:06:10;19.60;;;4.20;;
26277;SDS011;14000;52.056;8.510;2023-02-01T16:08:51;23.30;;;4.77;;
26277;SDS011;14000;52.056;8.510;2023-02-01T16:13:58;26.37;;;5.20;;
26277;SDS011;14000;52.056;8.510;2023-02-01T16:16:25;25.63;;;4.20;;
26277;SDS011;14000;52.056;8.510;2023-02-01T16:18:55;23.83;;;5.30;;
26277;SDS011;14000;52.056;8.510;2023-02-01T16:21:20;21.10;;;4.03;;
26277;SDS011;14000;52.056;8.510;2023-02-01T16:23:52;17.57;;;4.10;;
26277;SDS011;14000;52.056;8.510;2023-02-01T16:26:18;26.17;;;5.07;;
26277;SDS011;14000;52.056;8.510;2023-02-01T16:28:45;26.97;;;4.40;;
26277;SDS011;14000;52.056;8.510;2023-02-01T16:31:12;25.37;;;4.07;;
26277;SDS011;14000;52.056;8.510;2023-02-01T16:33:44;20.70;;;4.40;;
26277;SDS011;14000;52.056;8.510;2023-02-01T16:36:16;27.87;;;4.00;;
26277;SDS011;14000;52.056;8.510;2023-02-01T16:38:43;24.63;;;3.97;;
26277;SDS011;14000;52.056;8.510;2023-02-01T16:41:12;26.67;;;4.57;;
26277;SDS011;14000;52.056;8.510;2023-02-01T16:43:38;22.40;;;4.37;;
26277;SDS011;14000;52.056;8.510;2023-02-01T16:46:05;28.57;;;5.00;;
26277;SDS011;14000;52.056;8.510;2023-02-01T16:48:35;25.33;;;6.57;;
26277;SDS011;14000;52.056;8.510;2023-02-01T16:51:08;24.30;;;4.30;;
26277;SDS011;14000;52.056;8.510;2023-02-01T16:53:37;22.70;;;4.03;;
26277;SDS011;14000;52.056;8.510;2023-02-01T16:56:13;25.87;;;5.37;;